createdAt,value
2016-12-04T00:00:03.500Z,-0.82
2016-12-04T00:00:45.111Z,-0.83
2016-12-04T00:01:26.544Z,-0.85
2016-12-04T00:02:08.170Z,-0.83
2016-12-04T00:02:49.989Z,-0.91
2016-12-04T00:03:31.690Z,-0.79
2016-12-04T00:04:13.392Z,-0.85
2016-12-04T00:04:54.982Z,-0.83
2016-12-04T00:06:49.697Z,-0.85
2016-12-04T00:07:31.365Z,-0.95
2016-12-04T00:08:13.086Z,-0.86
2016-12-04T00:08:54.833Z,-0.92
2016-12-04T00:09:36.570Z,-0.92
2016-12-04T00:11:36.523Z,-0.99
2016-12-04T00:12:18.225Z,-0.97
2016-12-04T00:12:59.790Z,-0.92
2016-12-04T00:13:41.437Z,-0.89
2016-12-04T00:14:23.164Z,-0.94
2016-12-04T00:15:04.858Z,-0.97
2016-12-04T00:15:46.529Z,-0.95
2016-12-04T00:17:35.880Z,-0.89
2016-12-04T00:18:17.654Z,-0.92
2016-12-04T00:18:59.382Z,-0.95
2016-12-04T00:19:41.115Z,-0.86
2016-12-04T00:20:22.802Z,-0.92
2016-12-04T00:21:04.565Z,-0.95
2016-12-04T00:21:46.156Z,-0.8
2016-12-04T00:22:27.840Z,-0.94
2016-12-04T00:24:06.925Z,-0.82
2016-12-04T00:24:48.608Z,-0.79
2016-12-04T00:25:30.321Z,-0.86
2016-12-04T00:26:11.993Z,-0.79
2016-12-04T00:26:53.802Z,-0.86
2016-12-04T00:27:35.456Z,-0.83
2016-12-04T00:28:17.134Z,-0.79
2016-12-04T00:28:58.924Z,-0.85
2016-12-04T00:29:40.650Z,-0.85
2016-12-04T00:31:35.494Z,-0.82
2016-12-04T00:32:17.324Z,-0.86
2016-12-04T00:32:58.975Z,-0.83
2016-12-04T00:33:40.763Z,-0.94
2016-12-04T00:34:22.379Z,-0.8
2016-12-04T00:35:04.119Z,-0.95
2016-12-04T00:35:45.852Z,-0.82
2016-12-04T00:36:27.510Z,-0.86
2016-12-04T00:37:09.311Z,-0.86
2016-12-04T00:37:51.128Z,-0.92
2016-12-04T00:39:45.907Z,-0.85
2016-12-04T00:40:27.684Z,-0.83
2016-12-04T00:41:09.336Z,-0.83
2016-12-04T00:41:51.120Z,-0.85
2016-12-04T00:42:32.811Z,-0.85
2016-12-04T00:43:14.518Z,-0.95
2016-12-04T00:43:56.205Z,-0.97
2016-12-04T00:44:37.922Z,-0.82
2016-12-04T00:45:19.602Z,-0.92
2016-12-04T00:46:01.271Z,-0.86
2016-12-04T00:46:42.991Z,-0.89
2016-12-04T00:48:42.964Z,-0.89
2016-12-04T00:49:24.659Z,-0.82
2016-12-04T00:50:06.358Z,-0.85
2016-12-04T00:50:47.987Z,-0.83
2016-12-04T00:51:29.724Z,-0.8
2016-12-04T00:52:11.445Z,-0.89
2016-12-04T00:52:53.258Z,-0.82
2016-12-04T00:53:34.950Z,-0.86
2016-12-04T00:54:16.793Z,-0.83
2016-12-04T00:54:58.513Z,-0.82
2016-12-04T00:55:40.196Z,-0.95
2016-12-04T00:56:21.900Z,-0.99
2016-12-04T00:57:03.681Z,-0.92
2016-12-04T00:57:45.441Z,-0.89
2016-12-04T00:58:27.094Z,-0.92
2016-12-04T00:59:08.784Z,-0.91
2016-12-04T00:59:50.523Z,-0.92
2016-12-04T01:02:05.917Z,-0.91
2016-12-04T01:02:47.775Z,-0.94
2016-12-04T01:03:29.499Z,-0.94
2016-12-04T01:04:11.152Z,-0.94
2016-12-04T01:04:52.668Z,-0.98
2016-12-04T01:05:34.172Z,-0.94
2016-12-04T01:06:15.797Z,-0.97
2016-12-04T01:06:57.503Z,-0.92
2016-12-04T01:07:39.248Z,-1.04
2016-12-04T01:08:20.778Z,-0.86
2016-12-04T01:09:02.414Z,-0.97
2016-12-04T01:09:44.059Z,-0.91
2016-12-04T01:10:25.762Z,-0.97
2016-12-04T01:11:07.518Z,-0.94
2016-12-04T01:11:49.236Z,-0.89
2016-12-04T01:13:38.478Z,-0.94
2016-12-04T01:14:20.264Z,-0.92
2016-12-04T01:15:01.879Z,-0.92
2016-12-04T01:15:43.568Z,-0.89
2016-12-04T01:16:25.242Z,-0.89
2016-12-04T01:18:19.625Z,-0.95
2016-12-04T01:19:01.362Z,-0.99
2016-12-04T01:19:43.068Z,-0.97
2016-12-04T01:20:24.705Z,-0.97
2016-12-04T01:22:40.052Z,-0.97
2016-12-04T01:23:21.907Z,-1.09
2016-12-04T01:24:03.649Z,-1.04
2016-12-04T01:24:45.292Z,-1.09
2016-12-04T01:25:26.932Z,-1.09
2016-12-04T01:26:08.731Z,-1.17
2016-12-04T01:26:50.281Z,-1.15
2016-12-04T01:27:32.102Z,-1.15
2016-12-04T01:28:13.826Z,-1.19
2016-12-04T01:28:55.640Z,-1.22
2016-12-04T01:29:37.328Z,-1.23
2016-12-04T01:30:19.032Z,-1.1
2016-12-04T01:31:00.741Z,-1.12
2016-12-04T01:33:15.959Z,-1.1
2016-12-04T01:33:57.676Z,-1.12
2016-12-04T01:36:13.023Z,-1.09
2016-12-04T01:36:54.784Z,-1.22
2016-12-04T01:37:36.445Z,-1.07
2016-12-04T01:38:18.149Z,-1.13
2016-12-04T01:38:59.714Z,-1.12
2016-12-04T01:39:41.399Z,-1.17
2016-12-04T01:40:23.254Z,-1.12
2016-12-04T01:42:38.532Z,-1.13
2016-12-04T01:43:20.185Z,-1.12
2016-12-04T01:44:02.011Z,-1.23
2016-12-04T01:44:43.616Z,-1.22
2016-12-04T01:46:58.930Z,-1.22
2016-12-04T01:47:40.557Z,-1.34
2016-12-04T01:48:22.188Z,-1.43
2016-12-04T01:49:03.856Z,-1.46
2016-12-04T01:49:45.504Z,-1.38
2016-12-04T01:52:00.762Z,-1.43
2016-12-04T01:52:42.513Z,-1.55
2016-12-04T01:53:24.198Z,-1.52
2016-12-04T01:54:05.726Z,-1.41
2016-12-04T01:55:44.697Z,-1.52
2016-12-04T01:56:26.310Z,-1.52
2016-12-04T01:57:08.033Z,-1.55
2016-12-04T01:57:49.782Z,-1.51
2016-12-04T01:58:31.430Z,-1.62
2016-12-04T01:59:13.188Z,-1.55
2016-12-04T01:59:53.965Z,-1.62
2016-12-04T02:00:34.480Z,-1.72
2016-12-04T02:01:14.999Z,-1.66
2016-12-04T02:01:55.520Z,-1.64
2016-12-04T02:02:36.054Z,-1.66
2016-12-04T02:03:16.587Z,-1.73
2016-12-04T02:03:57.111Z,-1.69
2016-12-04T02:04:37.651Z,-1.67
2016-12-04T02:05:18.179Z,-1.72
2016-12-04T02:05:58.691Z,-1.7
2016-12-04T02:06:39.224Z,-1.72
2016-12-04T02:07:19.756Z,-1.64
2016-12-04T02:08:00.279Z,-1.67
2016-12-04T02:08:40.793Z,-1.7
2016-12-04T02:09:21.329Z,-1.66
2016-12-04T02:10:01.852Z,-1.62
2016-12-04T02:10:42.386Z,-1.67
2016-12-04T02:11:22.916Z,-1.7
2016-12-04T02:12:03.433Z,-1.74
2016-12-04T02:12:43.976Z,-1.73
2016-12-04T02:13:24.492Z,-1.8
2016-12-04T02:14:05.137Z,-1.72
2016-12-04T02:14:45.709Z,-1.72
2016-12-04T02:15:26.246Z,-1.79
2016-12-04T02:16:06.790Z,-1.74
2016-12-04T02:16:47.325Z,-1.76
2016-12-04T02:17:27.866Z,-1.74
2016-12-04T02:18:08.403Z,-1.79
2016-12-04T02:18:48.935Z,-1.77
2016-12-04T02:19:29.472Z,-1.8
2016-12-04T02:20:10.011Z,-1.8
2016-12-04T02:20:50.541Z,-1.67
2016-12-04T02:21:31.077Z,-1.69
2016-12-04T02:22:11.620Z,-1.62
2016-12-04T02:22:52.156Z,-1.67
2016-12-04T02:23:32.688Z,-1.66
2016-12-04T02:24:13.233Z,-1.67
2016-12-04T02:24:53.746Z,-1.61
2016-12-04T02:25:34.279Z,-1.73
2016-12-04T02:26:14.810Z,-1.69
2016-12-04T02:26:55.332Z,-1.58
2016-12-04T02:27:35.866Z,-1.61
2016-12-04T02:28:16.400Z,-1.61
2016-12-04T02:28:56.931Z,-1.66
2016-12-04T02:29:37.463Z,-1.59
2016-12-04T02:30:17.992Z,-1.7
2016-12-04T02:30:58.519Z,-1.62
2016-12-04T02:31:39.043Z,-1.64
2016-12-04T02:32:19.569Z,-1.64
2016-12-04T02:33:00.093Z,-1.66
2016-12-04T02:33:40.628Z,-1.66
2016-12-04T02:34:21.156Z,-1.59
2016-12-04T02:35:01.692Z,-1.54
2016-12-04T02:35:42.228Z,-1.56
2016-12-04T02:36:22.750Z,-1.51
2016-12-04T02:37:03.288Z,-1.55
2016-12-04T02:37:43.790Z,-1.56
2016-12-04T02:38:24.326Z,-1.56
2016-12-04T02:39:04.843Z,-1.56
2016-12-04T02:39:45.384Z,-1.54
2016-12-04T02:40:25.910Z,-1.52
2016-12-04T02:41:06.445Z,-1.48
2016-12-04T02:41:46.980Z,-1.46
2016-12-04T02:42:27.524Z,-1.51
2016-12-04T02:43:08.047Z,-1.49
2016-12-04T02:43:48.589Z,-1.43
2016-12-04T02:44:29.116Z,-1.48
2016-12-04T02:45:09.657Z,-1.48
2016-12-04T02:45:50.190Z,-1.45
2016-12-04T02:46:30.717Z,-1.48
2016-12-04T02:47:11.251Z,-1.38
2016-12-04T02:47:51.788Z,-1.4
2016-12-04T02:48:32.395Z,-1.46
2016-12-04T02:49:12.857Z,-1.51
2016-12-04T02:49:53.390Z,-1.48
2016-12-04T02:50:33.963Z,-1.45
2016-12-04T02:51:14.495Z,-1.51
2016-12-04T02:51:55.023Z,-1.48
2016-12-04T02:52:35.553Z,-1.46
2016-12-04T02:53:16.092Z,-1.4
2016-12-04T02:53:56.618Z,-1.52
2016-12-04T02:54:37.147Z,-1.49
2016-12-04T02:55:17.689Z,-1.38
2016-12-04T02:55:58.206Z,-1.4
2016-12-04T02:56:38.728Z,-1.34
2016-12-04T02:57:19.262Z,-1.41
2016-12-04T02:57:59.795Z,-1.41
2016-12-04T02:58:40.329Z,-1.4
2016-12-04T02:59:20.856Z,-1.38
2016-12-04T03:00:01.386Z,-1.38
2016-12-04T03:00:41.918Z,-1.35
2016-12-04T03:01:22.490Z,-1.43
2016-12-04T03:02:03.008Z,-1.37
2016-12-04T03:02:43.543Z,-1.41
2016-12-04T03:03:24.072Z,-1.4
2016-12-04T03:04:04.604Z,-1.4
2016-12-04T03:04:45.141Z,-1.31
2016-12-04T03:05:25.678Z,-1.4
2016-12-04T03:06:06.224Z,-1.35
2016-12-04T03:06:46.758Z,-1.37
2016-12-04T03:07:27.302Z,-1.35
2016-12-04T03:08:07.846Z,-1.34
2016-12-04T03:08:48.378Z,-1.31
2016-12-04T03:09:28.910Z,-1.37
2016-12-04T03:10:09.442Z,-1.34
2016-12-04T03:10:49.978Z,-1.34
2016-12-04T03:11:30.508Z,-1.3
2016-12-04T03:12:11.044Z,-1.33
2016-12-04T03:12:51.569Z,-1.23
2016-12-04T03:13:32.114Z,-1.33
2016-12-04T03:14:12.608Z,-1.2
2016-12-04T03:14:53.131Z,-1.25
2016-12-04T03:15:33.664Z,-1.25
2016-12-04T03:16:14.195Z,-1.23
2016-12-04T03:16:54.734Z,-1.25
2016-12-04T03:17:35.277Z,-1.3
2016-12-04T03:18:15.796Z,-1.25
2016-12-04T03:18:56.311Z,-1.27
2016-12-04T03:19:36.848Z,-1.16
2016-12-04T03:20:17.365Z,-1.22
2016-12-04T03:20:57.899Z,-1.19
2016-12-04T03:21:38.417Z,-1.22
2016-12-04T03:22:18.942Z,-1.28
2016-12-04T03:22:59.479Z,-1.22
2016-12-04T03:23:40.015Z,-1.23
2016-12-04T03:24:20.555Z,-1.2
2016-12-04T03:25:01.072Z,-1.3
2016-12-04T03:25:41.606Z,-1.19
2016-12-04T03:26:22.139Z,-1.19
2016-12-04T03:27:02.685Z,-1.19
2016-12-04T03:27:43.217Z,-1.3
2016-12-04T03:28:23.739Z,-1.2
2016-12-04T03:29:04.272Z,-1.27
2016-12-04T03:29:44.805Z,-1.27
2016-12-04T03:30:25.354Z,-1.34
2016-12-04T03:31:05.884Z,-1.22
2016-12-04T03:31:46.413Z,-1.27
2016-12-04T03:32:26.947Z,-1.27
2016-12-04T03:33:07.472Z,-1.31
2016-12-04T03:33:48.009Z,-1.28
2016-12-04T03:34:28.541Z,-1.34
2016-12-04T03:35:09.078Z,-1.37
2016-12-04T03:35:49.611Z,-1.34
2016-12-04T03:36:30.134Z,-1.33
2016-12-04T03:37:10.670Z,-1.35
2016-12-04T03:37:51.206Z,-1.38
2016-12-04T03:38:31.738Z,-1.25
2016-12-04T03:39:12.274Z,-1.27
2016-12-04T03:39:52.808Z,-1.3
2016-12-04T03:40:33.329Z,-1.3
2016-12-04T03:41:13.858Z,-1.31
2016-12-04T03:41:54.401Z,-1.3
2016-12-04T03:42:34.931Z,-1.38
2016-12-04T03:43:15.464Z,-1.38
2016-12-04T03:43:55.985Z,-1.38
2016-12-04T03:44:36.553Z,-1.35
2016-12-04T03:45:17.075Z,-1.31
2016-12-04T03:45:57.611Z,-1.3
2016-12-04T03:46:38.146Z,-1.27
2016-12-04T03:47:18.693Z,-1.4
2016-12-04T03:47:59.212Z,-1.33
2016-12-04T03:48:39.742Z,-1.27
2016-12-04T03:49:20.277Z,-1.3
2016-12-04T03:50:00.805Z,-1.33
2016-12-04T03:50:41.332Z,-1.28
2016-12-04T03:51:21.855Z,-1.31
2016-12-04T03:52:02.378Z,-1.34
2016-12-04T03:52:42.925Z,-1.38
2016-12-04T03:53:23.442Z,-1.31
2016-12-04T03:54:03.961Z,-1.27
2016-12-04T03:54:44.483Z,-1.34
2016-12-04T03:55:25.000Z,-1.25
2016-12-04T03:56:05.536Z,-1.31
2016-12-04T03:56:46.071Z,-1.31
2016-12-04T03:57:26.604Z,-1.34
2016-12-04T03:58:07.130Z,-1.33
2016-12-04T03:58:47.676Z,-1.35
2016-12-04T03:59:28.198Z,-1.27
2016-12-04T04:00:08.729Z,-1.34
2016-12-04T04:00:49.258Z,-1.37
2016-12-04T04:01:29.784Z,-1.3
2016-12-04T04:02:10.320Z,-1.4
2016-12-04T04:02:50.856Z,-1.34
2016-12-04T04:03:31.390Z,-1.34
2016-12-04T04:04:11.925Z,-1.28
2016-12-04T04:04:52.445Z,-1.41
2016-12-04T04:05:32.983Z,-1.43
2016-12-04T04:06:13.528Z,-1.38
2016-12-04T04:06:54.042Z,-1.41
2016-12-04T04:07:34.573Z,-1.33
2016-12-04T04:08:15.089Z,-1.43
2016-12-04T04:08:55.622Z,-1.46
2016-12-04T04:09:36.158Z,-1.4
2016-12-04T04:10:16.688Z,-1.4
2016-12-04T04:10:57.203Z,-1.37
2016-12-04T04:11:37.737Z,-1.51
2016-12-04T04:12:18.262Z,-1.4
2016-12-04T04:12:58.811Z,-1.46
2016-12-04T04:13:39.351Z,-1.43
2016-12-04T04:14:19.870Z,-1.38
2016-12-04T04:15:00.393Z,-1.45
2016-12-04T04:15:40.921Z,-1.35
2016-12-04T04:16:21.455Z,-1.38
2016-12-04T04:17:01.990Z,-1.4
2016-12-04T04:17:42.524Z,-1.35
2016-12-04T04:18:23.051Z,-1.41
2016-12-04T04:19:03.584Z,-1.41
2016-12-04T04:19:44.140Z,-1.35
2016-12-04T04:20:24.653Z,-1.4
2016-12-04T04:21:05.189Z,-1.49
2016-12-04T04:21:45.729Z,-1.38
2016-12-04T04:22:26.267Z,-1.37
2016-12-04T04:23:06.798Z,-1.43
2016-12-04T04:23:47.335Z,-1.33
2016-12-04T04:24:27.855Z,-1.38
2016-12-04T04:25:08.394Z,-1.41
2016-12-04T04:25:48.930Z,-1.43
2016-12-04T04:26:29.459Z,-1.37
2016-12-04T04:27:10.004Z,-1.41
2016-12-04T04:27:50.535Z,-1.41
2016-12-04T04:28:31.076Z,-1.41
2016-12-04T04:29:11.603Z,-1.41
2016-12-04T04:29:52.127Z,-1.4
2016-12-04T04:30:32.654Z,-1.35
2016-12-04T04:31:13.198Z,-1.41
2016-12-04T04:31:53.738Z,-1.41
2016-12-04T04:32:34.263Z,-1.37
2016-12-04T04:33:14.793Z,-1.35
2016-12-04T04:33:55.319Z,-1.34
2016-12-04T04:34:35.847Z,-1.35
2016-12-04T04:35:16.368Z,-1.35
2016-12-04T04:35:56.902Z,-1.35
2016-12-04T04:36:37.418Z,-1.4
2016-12-04T04:37:17.955Z,-1.31
2016-12-04T04:37:58.474Z,-1.4
2016-12-04T04:38:39.015Z,-1.38
2016-12-04T04:39:19.551Z,-1.4
2016-12-04T04:40:00.070Z,-1.43
2016-12-04T04:40:40.604Z,-1.45
2016-12-04T04:41:21.134Z,-1.4
2016-12-04T04:42:01.661Z,-1.38
2016-12-04T04:42:42.200Z,-1.37
2016-12-04T04:43:22.742Z,-1.41
2016-12-04T04:44:03.266Z,-1.43
2016-12-04T04:44:43.796Z,-1.46
2016-12-04T04:45:24.343Z,-1.51
2016-12-04T04:46:04.875Z,-1.48
2016-12-04T04:46:45.410Z,-1.51
2016-12-04T04:47:25.943Z,-1.51
2016-12-04T04:48:06.472Z,-1.51
2016-12-04T04:48:47.020Z,-1.51
2016-12-04T04:49:27.549Z,-1.51
2016-12-04T04:50:08.071Z,-1.55
2016-12-04T04:50:48.608Z,-1.58
2016-12-04T04:51:29.148Z,-1.54
2016-12-04T04:52:09.682Z,-1.52
2016-12-04T04:52:50.218Z,-1.55
2016-12-04T04:53:30.743Z,-1.56
2016-12-04T04:54:11.283Z,-1.59
2016-12-04T04:54:51.816Z,-1.66
2016-12-04T04:55:32.348Z,-1.58
2016-12-04T04:56:12.871Z,-1.64
2016-12-04T04:56:53.408Z,-1.69
2016-12-04T04:57:33.944Z,-1.59
2016-12-04T04:58:14.487Z,-1.62
2016-12-04T04:58:55.031Z,-1.64
2016-12-04T04:59:35.550Z,-1.59
2016-12-04T05:00:16.077Z,-1.62
2016-12-04T05:00:56.612Z,-1.72
2016-12-04T05:01:37.144Z,-1.67
2016-12-04T05:02:17.687Z,-1.69
2016-12-04T05:02:58.222Z,-1.73
2016-12-04T05:03:38.746Z,-1.64
2016-12-04T05:04:19.274Z,-1.7
2016-12-04T05:04:59.832Z,-1.74
2016-12-04T05:05:40.364Z,-1.74
2016-12-04T05:06:20.902Z,-1.76
2016-12-04T05:07:01.442Z,-1.73
2016-12-04T05:07:41.977Z,-1.69
2016-12-04T05:08:22.520Z,-1.72
2016-12-04T05:09:03.071Z,-1.8
2016-12-04T05:09:43.594Z,-1.77
2016-12-04T05:10:24.132Z,-1.74
2016-12-04T05:11:04.674Z,-1.8
2016-12-04T05:11:45.206Z,-1.76
2016-12-04T05:12:25.748Z,-1.77
2016-12-04T05:13:06.286Z,-1.9
2016-12-04T05:13:46.826Z,-1.77
2016-12-04T05:14:27.369Z,-1.77
2016-12-04T05:15:07.891Z,-1.88
2016-12-04T05:15:48.429Z,-1.87
2016-12-04T05:16:28.971Z,-1.76
2016-12-04T05:17:09.498Z,-1.73
2016-12-04T05:17:50.033Z,-1.74
2016-12-04T05:18:30.568Z,-1.8
2016-12-04T05:19:11.089Z,-1.82
2016-12-04T05:19:51.621Z,-1.92
2016-12-04T05:20:32.154Z,-1.79
2016-12-04T05:21:12.686Z,-1.88
2016-12-04T05:21:53.215Z,-1.79
2016-12-04T05:22:33.742Z,-1.84
2016-12-04T05:23:14.289Z,-1.88
2016-12-04T05:23:54.820Z,-1.87
2016-12-04T05:24:35.354Z,-1.84
2016-12-04T05:25:15.890Z,-1.85
2016-12-04T05:25:56.425Z,-1.87
2016-12-04T05:26:36.955Z,-1.94
2016-12-04T05:27:17.482Z,-1.97
2016-12-04T05:27:58.048Z,-1.95
2016-12-04T05:28:38.562Z,-1.95
2016-12-04T05:29:19.098Z,-2.02
2016-12-04T05:29:59.634Z,-2.1
2016-12-04T05:30:40.155Z,-2.06
2016-12-04T05:31:20.684Z,-2.06
2016-12-04T05:32:01.230Z,-2.09
2016-12-04T05:32:41.748Z,-2.06
2016-12-04T05:33:22.291Z,-2.09
2016-12-04T05:34:02.823Z,-2.12
2016-12-04T05:34:43.353Z,-2.12
2016-12-04T05:35:23.887Z,-2.26
2016-12-04T05:36:04.434Z,-2.24
2016-12-04T05:36:44.973Z,-2.13
2016-12-04T05:37:25.515Z,-2.15
2016-12-04T05:38:06.048Z,-2.13
2016-12-04T05:38:46.570Z,-2.18
2016-12-04T05:39:27.121Z,-2.13
2016-12-04T05:40:07.650Z,-2.12
2016-12-04T05:40:48.185Z,-2.1
2016-12-04T05:41:28.703Z,-2.13
2016-12-04T05:42:09.229Z,-2.12
2016-12-04T05:42:49.770Z,-2.08
2016-12-04T05:43:30.311Z,-2.16
2016-12-04T05:44:10.827Z,-2.05
2016-12-04T05:44:51.352Z,-2.16
2016-12-04T05:45:31.882Z,-2.1
2016-12-04T05:46:12.411Z,-2.12
2016-12-04T05:46:52.951Z,-2.09
2016-12-04T05:47:33.482Z,-2.06
2016-12-04T05:48:14.017Z,-2.06
2016-12-04T05:48:54.541Z,-2.02
2016-12-04T05:49:35.057Z,-2.12
2016-12-04T05:50:15.617Z,-2.1
2016-12-04T05:50:56.143Z,-1.95
2016-12-04T05:51:36.690Z,-1.98
2016-12-04T05:52:17.210Z,-2
2016-12-04T05:52:57.749Z,-2
2016-12-04T05:53:38.275Z,-1.95
2016-12-04T05:54:18.811Z,-1.94
2016-12-04T05:54:59.343Z,-2
2016-12-04T05:55:39.878Z,-1.97
2016-12-04T05:56:20.415Z,-1.95
2016-12-04T05:57:00.975Z,-2.03
2016-12-04T05:57:41.466Z,-1.97
2016-12-04T05:58:22.018Z,-1.97
2016-12-04T05:59:02.532Z,-2
2016-12-04T05:59:43.059Z,-1.98
2016-12-04T06:00:23.595Z,-1.88
2016-12-04T06:01:04.132Z,-2.02
2016-12-04T06:01:44.664Z,-1.97
2016-12-04T06:02:25.197Z,-1.97
2016-12-04T06:03:05.722Z,-1.92
2016-12-04T06:03:46.234Z,-1.98
2016-12-04T06:04:26.762Z,-1.94
2016-12-04T06:05:07.288Z,-1.91
2016-12-04T06:05:47.849Z,-1.9
2016-12-04T06:06:28.379Z,-1.9
2016-12-04T06:07:08.883Z,-1.91
2016-12-04T06:07:49.412Z,-1.82
2016-12-04T06:08:29.927Z,-1.88
2016-12-04T06:09:10.431Z,-1.92
2016-12-04T06:09:50.952Z,-1.94
2016-12-04T06:10:31.494Z,-1.9
2016-12-04T06:11:12.036Z,-1.87
2016-12-04T06:11:52.539Z,-1.92
2016-12-04T06:12:33.059Z,-1.87
2016-12-04T06:13:13.565Z,-2
2016-12-04T06:13:54.077Z,-1.97
2016-12-04T06:14:34.589Z,-2.03
2016-12-04T06:15:15.117Z,-2
2016-12-04T06:15:55.652Z,-1.98
2016-12-04T06:16:36.171Z,-2
2016-12-04T06:17:16.701Z,-2.06
2016-12-04T06:17:57.231Z,-1.98
2016-12-04T06:18:37.784Z,-1.97
2016-12-04T06:19:18.297Z,-2
2016-12-04T06:19:58.825Z,-1.97
2016-12-04T06:20:39.358Z,-1.98
2016-12-04T06:21:19.909Z,-2.1
2016-12-04T06:22:00.433Z,-2.02
2016-12-04T06:22:40.969Z,-2.15
2016-12-04T06:23:21.522Z,-2.09
2016-12-04T06:24:02.064Z,-2.12
2016-12-04T06:24:42.598Z,-2.02
2016-12-04T06:25:23.125Z,-1.98
2016-12-04T06:26:03.660Z,-1.98
2016-12-04T06:26:44.268Z,-2.09
2016-12-04T06:27:24.796Z,-2.02
2016-12-04T06:28:05.331Z,-1.97
2016-12-04T06:28:45.885Z,-1.97
2016-12-04T06:29:26.413Z,-2.06
2016-12-04T06:30:06.946Z,-1.98
2016-12-04T06:30:47.457Z,-2.05
2016-12-04T06:32:26.281Z,-1.98
2016-12-04T06:33:06.808Z,-2.03
2016-12-04T06:33:47.345Z,-1.95
2016-12-04T06:34:27.882Z,-1.91
2016-12-04T06:35:08.415Z,-1.94
2016-12-04T06:35:48.953Z,-2.02
2016-12-04T06:36:29.601Z,-1.98
2016-12-04T06:37:10.075Z,-1.98
2016-12-04T06:37:50.603Z,-1.94
2016-12-04T06:38:31.143Z,-1.94
2016-12-04T06:39:11.671Z,-2
2016-12-04T06:39:52.204Z,-1.87
2016-12-04T06:40:32.723Z,-1.95
2016-12-04T06:41:13.252Z,-2
2016-12-04T06:41:53.762Z,-1.94
2016-12-04T06:42:34.292Z,-2
2016-12-04T06:43:14.807Z,-2.03
2016-12-04T06:43:55.337Z,-1.97
2016-12-04T06:44:35.866Z,-1.97
2016-12-04T06:45:16.377Z,-2.03
2016-12-04T06:45:56.917Z,-2.03
2016-12-04T06:46:37.413Z,-1.94
2016-12-04T06:47:17.917Z,-2.03
2016-12-04T06:47:58.446Z,-1.92
2016-12-04T06:48:38.972Z,-1.97
2016-12-04T06:49:19.502Z,-2.03
2016-12-04T06:50:00.046Z,-2.03
2016-12-04T06:50:40.575Z,-2.02
2016-12-04T06:51:21.141Z,-1.97
2016-12-04T06:52:01.674Z,-2.02
2016-12-04T06:52:42.207Z,-2.05
2016-12-04T06:53:22.743Z,-2.02
2016-12-04T06:54:03.269Z,-1.95
2016-12-04T06:54:43.797Z,-1.97
2016-12-04T06:55:24.337Z,-2.09
2016-12-04T06:56:04.874Z,-2.02
2016-12-04T06:56:45.397Z,-2.02
2016-12-04T06:57:25.926Z,-2.1
2016-12-04T06:58:06.460Z,-2.1
2016-12-04T06:58:46.997Z,-2.06
2016-12-04T06:59:27.527Z,-2.09
2016-12-04T07:00:08.063Z,-2.06
2016-12-04T07:00:48.597Z,-2.09
2016-12-04T07:01:29.121Z,-2.12
2016-12-04T07:02:09.651Z,-2.1
2016-12-04T07:02:50.190Z,-2.08
2016-12-04T07:03:30.719Z,-2.12
2016-12-04T07:04:11.254Z,-2.1
2016-12-04T07:04:51.777Z,-2.05
2016-12-04T07:05:32.323Z,-2.21
2016-12-04T07:06:12.845Z,-2.16
2016-12-04T07:06:53.385Z,-2.15
2016-12-04T07:07:33.896Z,-2.24
2016-12-04T07:08:14.422Z,-2.21
2016-12-04T07:08:54.947Z,-2.15
2016-12-04T07:09:35.476Z,-2.3
2016-12-04T07:10:15.979Z,-2.29
2016-12-04T07:10:56.583Z,-2.29
2016-12-04T07:11:37.118Z,-2.26
2016-12-04T07:12:17.646Z,-2.3
2016-12-04T07:12:58.166Z,-2.2
2016-12-04T07:13:38.727Z,-2.29
2016-12-04T07:14:19.227Z,-2.27
2016-12-04T07:14:59.735Z,-2.37
2016-12-04T07:15:40.256Z,-2.37
2016-12-04T07:16:20.767Z,-2.37
2016-12-04T07:17:01.285Z,-2.3
2016-12-04T07:17:41.805Z,-2.27
2016-12-04T07:18:22.333Z,-2.39
2016-12-04T07:19:02.855Z,-2.32
2016-12-04T07:19:43.372Z,-2.34
2016-12-04T07:20:23.867Z,-2.42
2016-12-04T07:21:04.403Z,-2.39
2016-12-04T07:21:44.910Z,-2.37
2016-12-04T07:22:25.428Z,-2.34
2016-12-04T07:23:05.964Z,-2.46
2016-12-04T07:23:46.493Z,-2.42
2016-12-04T07:24:27.020Z,-2.4
2016-12-04T07:25:07.575Z,-2.4
2016-12-04T07:25:48.108Z,-2.42
2016-12-04T07:26:28.641Z,-2.49
2016-12-04T07:27:09.158Z,-2.5
2016-12-04T07:27:49.701Z,-2.43
2016-12-04T07:28:30.191Z,-2.48
2016-12-04T07:29:10.727Z,-2.43
2016-12-04T07:29:51.269Z,-2.48
2016-12-04T07:30:31.800Z,-2.46
2016-12-04T07:31:12.332Z,-2.49
2016-12-04T07:31:52.861Z,-2.53
2016-12-04T07:32:33.395Z,-2.55
2016-12-04T07:33:13.926Z,-2.53
2016-12-04T07:33:54.468Z,-2.56
2016-12-04T07:34:35.002Z,-2.6
2016-12-04T07:35:15.530Z,-2.6
2016-12-04T07:35:56.054Z,-2.63
2016-12-04T07:36:36.596Z,-2.66
2016-12-04T07:37:17.130Z,-2.56
2016-12-04T07:37:57.669Z,-2.55
2016-12-04T07:38:38.198Z,-2.61
2016-12-04T07:39:18.726Z,-2.6
2016-12-04T07:39:59.246Z,-2.66
2016-12-04T07:40:39.752Z,-2.61
2016-12-04T07:41:20.268Z,-2.52
2016-12-04T07:42:00.801Z,-2.6
2016-12-04T07:42:41.351Z,-2.67
2016-12-04T07:43:21.854Z,-2.7
2016-12-04T07:44:02.392Z,-2.6
2016-12-04T07:44:42.931Z,-2.68
2016-12-04T07:45:23.471Z,-2.55
2016-12-04T07:46:04.005Z,-2.68
2016-12-04T07:46:44.547Z,-2.67
2016-12-04T07:47:25.084Z,-2.64
2016-12-04T07:48:05.622Z,-2.61
2016-12-04T07:48:46.125Z,-2.63
2016-12-04T07:49:26.620Z,-2.7
2016-12-04T07:50:07.124Z,-2.66
2016-12-04T07:50:47.626Z,-2.7
2016-12-04T07:51:28.156Z,-2.7
2016-12-04T07:52:08.691Z,-2.67
2016-12-04T07:52:49.235Z,-2.67
2016-12-04T07:53:29.756Z,-2.68
2016-12-04T07:54:10.285Z,-2.61
2016-12-04T07:54:50.841Z,-2.66
2016-12-04T07:55:31.367Z,-2.61
2016-12-04T07:56:11.895Z,-2.53
2016-12-04T07:56:52.422Z,-2.53
2016-12-04T07:57:32.953Z,-2.52
2016-12-04T07:58:13.473Z,-2.6
2016-12-04T07:58:54.009Z,-2.5
2016-12-04T07:59:34.538Z,-2.48
2016-12-04T08:00:15.055Z,-2.52
2016-12-04T08:00:55.585Z,-2.48
2016-12-04T08:01:36.127Z,-2.53
2016-12-04T08:02:16.624Z,-2.42
2016-12-04T08:02:57.152Z,-2.48
2016-12-04T08:03:37.716Z,-2.43
2016-12-04T08:04:18.244Z,-2.5
2016-12-04T08:04:58.777Z,-2.49
2016-12-04T08:05:39.301Z,-2.46
2016-12-04T08:06:19.843Z,-2.46
2016-12-04T08:07:00.362Z,-2.45
2016-12-04T08:07:40.906Z,-2.43
2016-12-04T08:08:21.440Z,-2.42
2016-12-04T08:09:01.978Z,-2.46
2016-12-04T08:09:42.504Z,-2.4
2016-12-04T08:10:23.033Z,-2.39
2016-12-04T08:11:03.571Z,-2.35
2016-12-04T08:11:44.116Z,-2.37
2016-12-04T08:12:24.658Z,-2.45
2016-12-04T08:13:05.191Z,-2.4
2016-12-04T08:13:45.764Z,-2.29
2016-12-04T08:14:26.294Z,-2.42
2016-12-04T08:15:06.817Z,-2.34
2016-12-04T08:15:47.339Z,-2.32
2016-12-04T08:16:27.875Z,-2.32
2016-12-04T08:17:08.416Z,-2.35
2016-12-04T08:17:48.942Z,-2.4
2016-12-04T08:18:29.477Z,-2.32
2016-12-04T08:19:10.072Z,-2.37
2016-12-04T08:19:50.577Z,-2.39
2016-12-04T08:20:31.104Z,-2.35
2016-12-04T08:21:11.642Z,-2.32
2016-12-04T08:21:52.179Z,-2.39
2016-12-04T08:22:32.714Z,-2.39
2016-12-04T08:23:13.248Z,-2.4
2016-12-04T08:23:53.777Z,-2.3
2016-12-04T08:24:34.296Z,-2.39
2016-12-04T08:25:14.823Z,-2.4
2016-12-04T08:25:55.353Z,-2.34
2016-12-04T08:26:35.871Z,-2.34
2016-12-04T08:27:16.403Z,-2.42
2016-12-04T08:27:56.947Z,-2.35
2016-12-04T08:28:37.506Z,-2.39
2016-12-04T08:29:18.037Z,-2.37
2016-12-04T08:29:58.570Z,-2.26
2016-12-04T08:30:39.102Z,-2.29
2016-12-04T08:31:19.654Z,-2.27
2016-12-04T08:32:00.174Z,-2.32
2016-12-04T08:32:40.710Z,-2.39
2016-12-04T08:33:21.247Z,-2.29
2016-12-04T08:34:01.777Z,-2.29
2016-12-04T08:34:42.312Z,-2.35
2016-12-04T08:35:22.844Z,-2.23
2016-12-04T08:36:03.383Z,-2.37
2016-12-04T08:36:43.915Z,-2.29
2016-12-04T08:37:24.451Z,-2.37
2016-12-04T08:38:04.980Z,-2.26
2016-12-04T08:38:45.515Z,-2.26
2016-12-04T08:39:26.043Z,-2.24
2016-12-04T08:40:06.571Z,-2.24
2016-12-04T08:40:47.109Z,-2.24
2016-12-04T08:41:27.635Z,-2.21
2016-12-04T08:42:08.167Z,-2.12
2016-12-04T08:42:48.696Z,-2.1
2016-12-04T08:43:29.226Z,-2.12
2016-12-04T08:44:09.760Z,-2.02
2016-12-04T08:44:50.294Z,-1.92
2016-12-04T08:45:30.826Z,-1.77
2016-12-04T08:46:11.365Z,-1.62
2016-12-04T08:46:51.900Z,-1.46
2016-12-04T08:47:32.425Z,-1.34
2016-12-04T08:48:12.963Z,-1.23
2016-12-04T08:48:53.499Z,-1.15
2016-12-04T08:49:34.038Z,-1.1
2016-12-04T08:50:14.571Z,-0.99
2016-12-04T08:50:55.104Z,-0.97
2016-12-04T08:51:35.640Z,-0.98
2016-12-04T08:52:16.166Z,-0.92
2016-12-04T08:52:56.705Z,-0.85
2016-12-04T08:53:37.230Z,-0.79
2016-12-04T08:54:17.768Z,-0.79
2016-12-04T08:54:58.304Z,-0.75
2016-12-04T08:55:38.841Z,-0.85
2016-12-04T08:56:19.364Z,-0.79
2016-12-04T08:56:59.885Z,-0.94
2016-12-04T08:57:40.425Z,-0.89
2016-12-04T08:58:20.945Z,-0.94
2016-12-04T08:59:01.486Z,-0.97
2016-12-04T08:59:42.035Z,-0.99
2016-12-04T09:00:22.566Z,-0.94
2016-12-04T09:01:03.092Z,-0.85
2016-12-04T09:01:43.631Z,-0.7
2016-12-04T09:02:24.175Z,-0.62
2016-12-04T09:03:04.709Z,-0.42
2016-12-04T09:03:45.225Z,-0.14
2016-12-04T09:04:25.758Z,-0.14
2016-12-04T09:05:06.321Z,-0.05
2016-12-04T09:05:46.861Z,-0.07
2016-12-04T09:06:27.414Z,-0.08
2016-12-04T09:07:07.955Z,-0.14
2016-12-04T09:07:48.464Z,-0.1
2016-12-04T09:08:28.992Z,0.04
2016-12-04T09:09:09.529Z,0.15
2016-12-04T09:09:50.066Z,0.41
2016-12-04T09:10:30.598Z,0.68